sensor_id;sensor_type;location;lat;lon;timestamp;pressure;altitude;pressure_sealevel;temperature;humidity
11643;BME280;5877;50.930;6.918;2023-03-04T00:01:12;101931.16;;;3.41;67.94
11643;BME280;5877;50.930;6.918;2023-03-04T00:06:04;101867.78;;;2.94;68.23
11643;BME280;5877;50.930;6.918;2023-03-04T00:10:56;101897.56;;;3.40;68.18
11643;BME280;5877;50.930;6.918;2023-03-04T00:15:48;101907.69;;;3.52;67.73
11643;BME280;5877;50.930;6.918;2023-03-04T00:20:39;101796.66;;;2.87;67.69
11643;BME280;5877;50.930;6.918;2023-03-04T00:25:31;101908.38;;;3.54;67.74
11643;BME280;5877;50.930;6.918;2023-03-04T00:30:24;101874.88;;;3.42;67.73
11643;BME280;5877;50.930;6.918;2023-03-04T00:35:15;101886.03;;;3.23;68.93
11643;BME280;5877;50.930;6.918;2023-03-04T00:40:08;101961.19;;;3.94;68.48
11643;BME280;5877;50.930;6.918;2023-03-04T00:45:00;101901.00;;;3.59;68.55
11643;BME280;5877;50.930;6.918;2023-03-04T00:49:52;101853.03;;;3.44;68.43
11643;BME280;5877;50.930;6.918;2023-03-04T00:54:44;101604.00;;;1.98;68.49
11643;BME280;5877;50.930;6.918;2023-03-04T00:59:36;101900.09;;;3.80;68.54
11643;BME280;5877;50.930;6.918;2023-03-04T01:04:28;101632.94;;;2.13;68.46
11643;BME280;5877;50.930;6.918;2023-03-04T01:09:20;101943.97;;;4.12;68.18
11643;BME280;5877;50.930;6.918;2023-03-04T01:14:11;101780.09;;;3.28;68.03
11643;BME280;5877;50.930;6.918;2023-03-04T01:19:03;101362.03;;;0.43;67.58
11643;BME280;5877;50.930;6.918;2023-03-04T01:23:55;101786.25;;;3.37;67.48
11643;BME280;5877;50.930;6.918;2023-03-04T01:28:46;101689.00;;;2.83;67.06
11643;BME280;5877;50.930;6.918;2023-03-04T01:33:38;101587.34;;;2.31;67.05
11643;BME280;5877;50.930;6.918;2023-03-04T01:38:30;101918.09;;;4.49;67.02
11643;BME280;5877;50.930;6.918;2023-03-04T01:43:26;101662.13;;;2.93;66.31
11643;BME280;5877;50.930;6.918;2023-03-04T01:48:23;101721.91;;;3.31;65.79
11643;BME280;5877;50.930;6.918;2023-03-04T01:53:20;101888.44;;;4.42;65.39
11643;BME280;5877;50.930;6.918;2023-03-04T01:58:13;101903.59;;;4.56;65.51
11643;BME280;5877;50.930;6.918;2023-03-04T02:03:08;101900.16;;;4.55;65.71
11643;BME280;5877;50.930;6.918;2023-03-04T02:08:03;101839.91;;;4.23;65.06
11643;BME280;5877;50.930;6.918;2023-03-04T02:12:55;101882.09;;;4.54;65.62
11643;BME280;5877;50.930;6.918;2023-03-04T02:17:48;101877.69;;;4.64;65.15
11643;BME280;5877;50.930;6.918;2023-03-04T02:22:48;101502.41;;;2.25;65.26
11643;BME280;5877;50.930;6.918;2023-03-04T02:27:42;101878.91;;;4.70;65.67
11643;BME280;5877;50.930;6.918;2023-03-04T02:32:33;101787.97;;;4.13;65.06
11643;BME280;5877;50.930;6.918;2023-03-04T02:37:25;101815.25;;;4.37;64.47
11643;BME280;5877;50.930;6.918;2023-03-04T02:42:18;101817.84;;;4.37;65.19
11643;BME280;5877;50.930;6.918;2023-03-04T02:47:11;101871.53;;;4.65;64.26
11643;BME280;5877;50.930;6.918;2023-03-04T02:52:16;101795.59;;;4.24;64.55
11643;BME280;5877;50.930;6.918;2023-03-04T02:57:10;101845.41;;;4.57;64.01
11643;BME280;5877;50.930;6.918;2023-03-04T03:02:06;101861.63;;;4.78;63.99
11643;BME280;5877;50.930;6.918;2023-03-04T03:06:58;101835.69;;;4.59;64.68
11643;BME280;5877;50.930;6.918;2023-03-04T03:11:51;101825.88;;;4.53;64.91
11643;BME280;5877;50.930;6.918;2023-03-04T03:16:43;101753.63;;;4.19;64.32
11643;BME280;5877;50.930;6.918;2023-03-04T03:21:35;101594.00;;;3.20;64.45
11643;BME280;5877;50.930;6.918;2023-03-04T03:26:27;101276.19;;;1.10;63.94
11643;BME280;5877;50.930;6.918;2023-03-04T03:31:18;101781.84;;;4.42;64.83
11643;BME280;5877;50.930;6.918;2023-03-04T03:36:10;101694.63;;;3.92;64.46
11643;BME280;5877;50.930;6.918;2023-03-04T03:41:02;101776.09;;;4.48;64.24
11643;BME280;5877;50.930;6.918;2023-03-04T03:45:54;101324.03;;;1.64;64.09
11643;BME280;5877;50.930;6.918;2023-03-04T03:50:46;101784.81;;;4.56;64.45
11643;BME280;5877;50.930;6.918;2023-03-04T03:55:38;101690.13;;;3.95;64.76
11643;BME280;5877;50.930;6.918;2023-03-04T04:00:30;101834.91;;;4.86;64.31
11643;BME280;5877;50.930;6.918;2023-03-04T04:05:21;101734.97;;;4.34;64.69
11643;BME280;5877;50.930;6.918;2023-03-04T04:10:13;101683.81;;;3.97;64.83
11643;BME280;5877;50.930;6.918;2023-03-04T04:15:06;101757.06;;;4.47;64.84
11643;BME280;5877;50.930;6.918;2023-03-04T04:19:58;101731.97;;;4.29;64.94
11643;BME280;5877;50.930;6.918;2023-03-04T04:24:50;101616.84;;;3.54;64.86
11643;BME280;5877;50.930;6.918;2023-03-04T04:29:41;101834.22;;;4.84;64.73
11643;BME280;5877;50.930;6.918;2023-03-04T04:34:33;101828.88;;;4.85;64.94
11643;BME280;5877;50.930;6.918;2023-03-04T04:39:25;101583.19;;;3.25;65.80
11643;BME280;5877;50.930;6.918;2023-03-04T04:44:17;101755.31;;;4.38;65.15
11643;BME280;5877;50.930;6.918;2023-03-04T04:49:09;101763.84;;;4.31;65.41
11643;BME280;5877;50.930;6.918;2023-03-04T04:54:01;101844.69;;;4.74;65.16
11643;BME280;5877;50.930;6.918;2023-03-04T04:58:56;101722.06;;;4.05;65.56
11643;BME280;5877;50.930;6.918;2023-03-04T05:03:48;101829.06;;;4.74;65.36
11643;BME280;5877;50.930;6.918;2023-03-04T05:08:41;101713.63;;;3.93;65.38
11643;BME280;5877;50.930;6.918;2023-03-04T05:13:33;101690.03;;;3.77;65.16
11643;BME280;5877;50.930;6.918;2023-03-04T05:18:26;101835.38;;;4.72;65.21
11643;BME280;5877;50.930;6.918;2023-03-04T05:23:18;101831.53;;;4.76;65.41
11643;BME280;5877;50.930;6.918;2023-03-04T05:28:10;101804.50;;;4.59;65.77
11643;BME280;5877;50.930;6.918;2023-03-04T05:33:03;101823.88;;;4.74;65.93
11643;BME280;5877;50.930;6.918;2023-03-04T05:37:54;101746.78;;;4.18;65.86
11643;BME280;5877;50.930;6.918;2023-03-04T05:42:46;101835.09;;;4.75;65.81
11643;BME280;5877;50.930;6.918;2023-03-04T05:47:38;101610.50;;;3.29;65.32
11643;BME280;5877;50.930;6.918;2023-03-04T05:52:29;101604.63;;;3.27;65.31
11643;BME280;5877;50.930;6.918;2023-03-04T05:57:21;101763.13;;;4.38;65.23
11643;BME280;5877;50.930;6.918;2023-03-04T06:02:13;101852.00;;;4.88;64.72
11643;BME280;5877;50.930;6.918;2023-03-04T06:07:04;101645.28;;;3.46;65.06
11643;BME280;5877;50.930;6.918;2023-03-04T06:11:56;101670.63;;;3.81;65.37
11643;BME280;5877;50.930;6.918;2023-03-04T06:16:48;101743.09;;;4.21;65.01
11643;BME280;5877;50.930;6.918;2023-03-04T06:21:39;101409.56;;;2.11;65.82
11643;BME280;5877;50.930;6.918;2023-03-04T06:26:31;101455.91;;;2.23;65.91
11643;BME280;5877;50.930;6.918;2023-03-04T06:31:24;101710.75;;;3.96;65.53
11643;BME280;5877;50.930;6.918;2023-03-04T06:36:16;101813.78;;;4.62;65.74
11643;BME280;5877;50.930;6.918;2023-03-04T06:41:11;101870.59;;;4.94;65.59
11643;BME280;5877;50.930;6.918;2023-03-04T06:46:05;101761.81;;;4.24;65.38
11643;BME280;5877;50.930;6.918;2023-03-04T06:50:58;101658.38;;;3.54;65.34
11643;BME280;5877;50.930;6.918;2023-03-04T06:55:54;101853.97;;;4.77;65.16
11643;BME280;5877;50.930;6.918;2023-03-04T07:00:47;101879.75;;;4.98;66.07
11643;BME280;5877;50.930;6.918;2023-03-04T07:05:38;101797.13;;;4.54;66.08
11643;BME280;5877;50.930;6.918;2023-03-04T07:10:30;101771.75;;;4.39;66.16
11643;BME280;5877;50.930;6.918;2023-03-04T07:15:22;101885.84;;;5.16;65.38
11643;BME280;5877;50.930;6.918;2023-03-04T07:20:14;101842.47;;;4.79;66.15
11643;BME280;5877;50.930;6.918;2023-03-04T07:25:06;101828.25;;;4.74;65.78
11643;BME280;5877;50.930;6.918;2023-03-04T07:29:58;101474.56;;;2.56;64.62
11643;BME280;5877;50.930;6.918;2023-03-04T07:34:50;101903.78;;;5.19;65.32
11643;BME280;5877;50.930;6.918;2023-03-04T07:39:41;101897.75;;;5.18;65.72
11643;BME280;5877;50.930;6.918;2023-03-04T07:44:33;101741.88;;;4.15;64.84
11643;BME280;5877;50.930;6.918;2023-03-04T07:49:26;101808.97;;;4.67;64.19
11643;BME280;5877;50.930;6.918;2023-03-04T07:54:17;101903.94;;;5.35;64.52
11643;BME280;5877;50.930;6.918;2023-03-04T07:59:10;101698.75;;;4.22;63.41
11643;BME280;5877;50.930;6.918;2023-03-04T08:04:04;101523.94;;;3.20;63.77
11643;BME280;5877;50.930;6.918;2023-03-04T08:09:04;101748.31;;;4.48;63.83
11643;BME280;5877;50.930;6.918;2023-03-04T08:13:57;101775.41;;;4.73;64.06
11643;BME280;5877;50.930;6.918;2023-03-04T08:18:52;101674.09;;;3.99;64.17
11643;BME280;5877;50.930;6.918;2023-03-04T08:23:45;101623.78;;;3.73;64.60
11643;BME280;5877;50.930;6.918;2023-03-04T08:28:37;101921.53;;;5.51;64.93
11643;BME280;5877;50.930;6.918;2023-03-04T08:33:30;101825.38;;;5.04;64.74
11643;BME280;5877;50.930;6.918;2023-03-04T08:38:22;101886.56;;;5.53;64.61
11643;BME280;5877;50.930;6.918;2023-03-04T08:43:14;101745.28;;;4.53;64.27
11643;BME280;5877;50.930;6.918;2023-03-04T08:48:05;101843.00;;;5.28;64.21
11643;BME280;5877;50.930;6.918;2023-03-04T08:52:58;101889.22;;;5.44;64.71
11643;BME280;5877;50.930;6.918;2023-03-04T08:57:49;101889.31;;;5.52;64.93
11643;BME280;5877;50.930;6.918;2023-03-04T09:02:41;101900.25;;;5.73;65.09
11643;BME280;5877;50.930;6.918;2023-03-04T09:07:33;101768.34;;;5.46;63.91
11643;BME280;5877;50.930;6.918;2023-03-04T09:12:24;101748.50;;;5.71;62.93
11643;BME280;5877;50.930;6.918;2023-03-04T09:17:16;101849.66;;;6.63;62.51
11643;BME280;5877;50.930;6.918;2023-03-04T09:22:08;101915.28;;;7.10;60.66
11643;BME280;5877;50.930;6.918;2023-03-04T09:26:59;101905.25;;;7.32;61.12
11643;BME280;5877;50.930;6.918;2023-03-04T09:31:51;101825.19;;;6.98;60.58
11643;BME280;5877;50.930;6.918;2023-03-04T09:36:43;101903.88;;;7.70;60.09
11643;BME280;5877;50.930;6.918;2023-03-04T09:41:42;101892.78;;;7.68;59.62
11643;BME280;5877;50.930;6.918;2023-03-04T09:46:37;101708.47;;;6.66;59.46
11643;BME280;5877;50.930;6.918;2023-03-04T09:56:34;101913.03;;;8.06;58.01
11643;BME280;5877;50.930;6.918;2023-03-04T10:01:35;101917.44;;;7.65;58.99
11643;BME280;5877;50.930;6.918;2023-03-04T10:06:30;101793.66;;;6.92;58.52
11643;BME280;5877;50.930;6.918;2023-03-04T10:11:36;101908.06;;;7.46;59.32
11643;BME280;5877;50.930;6.918;2023-03-04T10:16:40;101850.88;;;7.27;58.80
11643;BME280;5877;50.930;6.918;2023-03-04T10:21:42;101896.19;;;7.93;58.50
11643;BME280;5877;50.930;6.918;2023-03-04T10:26:35;101828.41;;;7.59;58.77
11643;BME280;5877;50.930;6.918;2023-03-04T10:31:36;101704.22;;;6.65;60.45
11643;BME280;5877;50.930;6.918;2023-03-04T10:41:23;101892.94;;;7.99;63.36
11643;BME280;5877;50.930;6.918;2023-03-04T10:46:16;101773.72;;;7.65;60.30
11643;BME280;5877;50.930;6.918;2023-03-04T10:51:21;101885.44;;;8.36;59.51
11643;BME280;5877;50.930;6.918;2023-03-04T10:56:40;101880.03;;;8.46;59.35
11643;BME280;5877;50.930;6.918;2023-03-04T11:01:36;101776.97;;;7.75;59.23
11643;BME280;5877;50.930;6.918;2023-03-04T11:06:28;101832.50;;;7.77;60.36
11643;BME280;5877;50.930;6.918;2023-03-04T11:11:30;101837.88;;;7.84;60.31
11643;BME280;5877;50.930;6.918;2023-03-04T11:16:30;101870.69;;;8.52;58.80
11643;BME280;5877;50.930;6.918;2023-03-04T11:21:24;101833.59;;;8.87;57.58
11643;BME280;5877;50.930;6.918;2023-03-04T11:26:23;101864.66;;;9.29;56.04
11643;BME280;5877;50.930;6.918;2023-03-04T11:31:27;101780.69;;;8.69;57.08
11643;BME280;5877;50.930;6.918;2023-03-04T11:41:46;101768.31;;;8.55;56.71
11643;BME280;5877;50.930;6.918;2023-03-04T11:46:59;101841.72;;;9.00;57.32
11643;BME280;5877;50.930;6.918;2023-03-04T11:57:14;101798.97;;;8.05;58.92
11643;BME280;5877;50.930;6.918;2023-03-04T12:07:24;101821.34;;;8.24;59.67
11643;BME280;5877;50.930;6.918;2023-03-04T12:17:40;101601.53;;;7.07;58.51
11643;BME280;5877;50.930;6.918;2023-03-04T12:22:45;101756.91;;;8.39;57.70
11643;BME280;5877;50.930;6.918;2023-03-04T12:33:26;101712.16;;;9.57;54.05
11643;BME280;5877;50.930;6.918;2023-03-04T12:43:40;101775.84;;;9.80;53.66
11643;BME280;5877;50.930;6.918;2023-03-04T12:54:24;101756.06;;;9.55;54.68
11643;BME280;5877;50.930;6.918;2023-03-04T12:59:22;101755.16;;;9.48;55.04
11643;BME280;5877;50.930;6.918;2023-03-04T13:04:34;101547.03;;;8.29;54.86
11643;BME280;5877;50.930;6.918;2023-03-04T13:09:35;101743.75;;;9.40;55.16
11643;BME280;5877;50.930;6.918;2023-03-04T13:14:34;101730.94;;;9.23;56.31
11643;BME280;5877;50.930;6.918;2023-03-04T13:24:46;101728.03;;;9.18;55.91
11643;BME280;5877;50.930;6.918;2023-03-04T13:29:41;101649.13;;;8.98;55.31
11643;BME280;5877;50.930;6.918;2023-03-04T13:39:37;101586.94;;;8.54;54.63
11643;BME280;5877;50.930;6.918;2023-03-04T13:44:56;101703.47;;;9.19;55.76
11643;BME280;5877;50.930;6.918;2023-03-04T13:49:48;101682.06;;;8.92;56.88
11643;BME280;5877;50.930;6.918;2023-03-04T13:54:40;101703.06;;;8.84;57.68
11643;BME280;5877;50.930;6.918;2023-03-04T13:59:41;101383.78;;;6.93;57.80
11643;BME280;5877;50.930;6.918;2023-03-04T14:04:40;101547.38;;;7.95;58.36
11643;BME280;5877;50.930;6.918;2023-03-04T14:09:33;101541.72;;;7.83;59.02
11643;BME280;5877;50.930;6.918;2023-03-04T14:14:28;101571.53;;;7.97;59.26
11643;BME280;5877;50.930;6.918;2023-03-04T14:19:25;101690.78;;;8.54;60.14
11643;BME280;5877;50.930;6.918;2023-03-04T14:24:19;101465.78;;;7.15;60.37
11643;BME280;5877;50.930;6.918;2023-03-04T14:29:27;101680.72;;;8.42;60.34
11643;BME280;5877;50.930;6.918;2023-03-04T14:34:27;101679.47;;;8.22;61.88
11643;BME280;5877;50.930;6.918;2023-03-04T14:39:21;101668.16;;;8.30;62.16
11643;BME280;5877;50.930;6.918;2023-03-04T14:49:13;101659.69;;;8.59;60.96
11643;BME280;5877;50.930;6.918;2023-03-04T14:54:06;101660.81;;;8.64;60.26
11643;BME280;5877;50.930;6.918;2023-03-04T14:58:58;101540.03;;;7.91;60.71
11643;BME280;5877;50.930;6.918;2023-03-04T15:03:52;101646.66;;;8.51;61.59
11643;BME280;5877;50.930;6.918;2023-03-04T15:08:53;101644.47;;;8.23;62.29
11643;BME280;5877;50.930;6.918;2023-03-04T15:13:48;101639.47;;;8.05;62.82
11643;BME280;5877;50.930;6.918;2023-03-04T15:19:18;101635.47;;;7.87;63.97
11643;BME280;5877;50.930;6.918;2023-03-04T15:24:10;101642.16;;;7.89;64.31
11643;BME280;5877;50.930;6.918;2023-03-04T15:29:21;101495.34;;;6.99;63.63
11643;BME280;5877;50.930;6.918;2023-03-04T15:34:15;101561.66;;;7.45;63.17
11643;BME280;5877;50.930;6.918;2023-03-04T15:39:11;101390.75;;;6.37;63.44
11643;BME280;5877;50.930;6.918;2023-03-04T15:44:03;101622.97;;;7.74;65.79
11643;BME280;5877;50.930;6.918;2023-03-04T15:48:55;101544.09;;;7.15;65.26
11643;BME280;5877;50.930;6.918;2023-03-04T15:53:51;101554.38;;;7.16;66.21
11643;BME280;5877;50.930;6.918;2023-03-04T15:58:49;101627.75;;;7.54;66.17
11643;BME280;5877;50.930;6.918;2023-03-04T16:03:44;101527.31;;;6.85;66.27
11643;BME280;5877;50.930;6.918;2023-03-04T16:08:35;101602.00;;;7.35;67.09
11643;BME280;5877;50.930;6.918;2023-03-04T16:13:27;101467.84;;;6.48;68.24
11643;BME280;5877;50.930;6.918;2023-03-04T16:18:20;101626.97;;;7.37;68.45
11643;BME280;5877;50.930;6.918;2023-03-04T16:23:14;101623.19;;;7.40;68.61
11643;BME280;5877;50.930;6.918;2023-03-04T16:28:09;101193.06;;;4.64;68.46
11643;BME280;5877;50.930;6.918;2023-03-04T16:33:01;101473.88;;;6.48;69.10
11643;BME280;5877;50.930;6.918;2023-03-04T16:37:53;101611.94;;;7.31;69.16
11643;BME280;5877;50.930;6.918;2023-03-04T16:42:45;101607.88;;;7.29;69.30
11643;BME280;5877;50.930;6.918;2023-03-04T16:47:36;101462.78;;;6.14;71.23
11643;BME280;5877;50.930;6.918;2023-03-04T16:52:30;101287.91;;;4.94;72.34
11643;BME280;5877;50.930;6.918;2023-03-04T16:57:22;101619.31;;;6.95;73.13
11643;BME280;5877;50.930;6.918;2023-03-04T17:02:16;101621.09;;;6.87;74.00
11643;BME280;5877;50.930;6.918;2023-03-04T17:07:08;101557.00;;;6.43;74.17
11643;BME280;5877;50.930;6.918;2023-03-04T17:12:00;101509.50;;;6.07;74.02
11643;BME280;5877;50.930;6.918;2023-03-04T17:16:52;101502.34;;;6.09;75.87
11643;BME280;5877;50.930;6.918;2023-03-04T17:21:44;101283.56;;;4.60;75.91
11643;BME280;5877;50.930;6.918;2023-03-04T17:26:35;101477.63;;;5.71;76.06
11643;BME280;5877;50.930;6.918;2023-03-04T17:31:27;101482.69;;;5.73;76.15
11643;BME280;5877;50.930;6.918;2023-03-04T17:36:19;101478.28;;;5.73;75.22
11643;BME280;5877;50.930;6.918;2023-03-04T17:41:13;101605.72;;;6.43;74.89
11643;BME280;5877;50.930;6.918;2023-03-04T17:46:09;101625.63;;;6.52;75.03
11643;BME280;5877;50.930;6.918;2023-03-04T17:51:03;101276.97;;;4.14;74.97
11643;BME280;5877;50.930;6.918;2023-03-04T17:55:57;101584.47;;;6.13;74.95
11643;BME280;5877;50.930;6.918;2023-03-04T18:00:52;101325.28;;;4.50;74.15
11643;BME280;5877;50.930;6.918;2023-03-04T18:05:44;101496.59;;;5.47;73.79
11643;BME280;5877;50.930;6.918;2023-03-04T18:10:35;101515.22;;;5.69;73.21
11643;BME280;5877;50.930;6.918;2023-03-04T18:15:27;101604.03;;;6.26;72.62
11643;BME280;5877;50.930;6.918;2023-03-04T18:20:19;101445.59;;;5.29;71.82
11643;BME280;5877;50.930;6.918;2023-03-04T18:25:11;101017.28;;;2.60;71.33
11643;BME280;5877;50.930;6.918;2023-03-04T18:30:04;101534.56;;;5.92;70.96
11643;BME280;5877;50.930;6.918;2023-03-04T18:34:56;101506.75;;;5.67;70.18
11643;BME280;5877;50.930;6.918;2023-03-04T18:39:48;101346.97;;;4.67;70.11
11643;BME280;5877;50.930;6.918;2023-03-04T18:44:40;101489.75;;;5.46;70.09
11643;BME280;5877;50.930;6.918;2023-03-04T18:49:33;101361.28;;;4.71;69.25
11643;BME280;5877;50.930;6.918;2023-03-04T18:54:24;101445.69;;;5.11;69.20
11643;BME280;5877;50.930;6.918;2023-03-04T18:59:20;101618.22;;;6.31;69.64
11643;BME280;5877;50.930;6.918;2023-03-04T19:04:13;101298.22;;;4.35;68.74
11643;BME280;5877;50.930;6.918;2023-03-04T19:09:06;101488.34;;;5.60;68.54
11643;BME280;5877;50.930;6.918;2023-03-04T19:13:58;101416.56;;;5.07;68.48
11643;BME280;5877;50.930;6.918;2023-03-04T19:18:51;101163.38;;;3.64;68.34
11643;BME280;5877;50.930;6.918;2023-03-04T19:23:43;101618.72;;;6.35;68.45
11643;BME280;5877;50.930;6.918;2023-03-04T19:28:35;101438.00;;;5.01;68.68
11643;BME280;5877;50.930;6.918;2023-03-04T19:33:27;101553.97;;;5.72;68.68
11643;BME280;5877;50.930;6.918;2023-03-04T19:38:19;101429.91;;;5.04;68.36
11643;BME280;5877;50.930;6.918;2023-03-04T19:43:11;101632.41;;;6.29;68.54
11643;BME280;5877;50.930;6.918;2023-03-04T19:48:03;101393.19;;;4.81;67.19
11643;BME280;5877;50.930;6.918;2023-03-04T19:52:55;101397.13;;;4.85;65.52
11643;BME280;5877;50.930;6.918;2023-03-04T19:57:47;101636.63;;;6.30;67.04
11643;BME280;5877;50.930;6.918;2023-03-04T20:02:38;101568.38;;;5.84;66.09
11643;BME280;5877;50.930;6.918;2023-03-04T20:07:30;101614.91;;;6.13;65.27
11643;BME280;5877;50.930;6.918;2023-03-04T20:12:22;101395.81;;;4.81;65.39
11643;BME280;5877;50.930;6.918;2023-03-04T20:17:14;101068.41;;;2.76;64.49
11643;BME280;5877;50.930;6.918;2023-03-04T20:22:06;101455.00;;;4.87;64.82
11643;BME280;5877;50.930;6.918;2023-03-04T20:26:59;101557.56;;;5.71;65.56
11643;BME280;5877;50.930;6.918;2023-03-04T20:31:51;101323.50;;;4.25;65.29
11643;BME280;5877;50.930;6.918;2023-03-04T20:36:43;101611.47;;;6.04;64.46
11643;BME280;5877;50.930;6.918;2023-03-04T20:41:35;101504.31;;;5.31;65.26
11643;BME280;5877;50.930;6.918;2023-03-04T20:51:30;101587.47;;;5.93;64.97
11643;BME280;5877;50.930;6.918;2023-03-04T20:56:22;101412.38;;;4.80;65.18
11643;BME280;5877;50.930;6.918;2023-03-04T21:01:14;101385.06;;;4.50;64.90
11643;BME280;5877;50.930;6.918;2023-03-04T21:06:08;101627.78;;;6.14;65.36
11643;BME280;5877;50.930;6.918;2023-03-04T21:11:01;101572.59;;;5.85;64.85
11643;BME280;5877;50.930;6.918;2023-03-04T21:15:53;101481.69;;;5.23;65.05
11643;BME280;5877;50.930;6.918;2023-03-04T21:20:45;101549.44;;;5.74;62.51
11643;BME280;5877;50.930;6.918;2023-03-04T21:25:39;101599.72;;;6.00;64.00
11643;BME280;5877;50.930;6.918;2023-03-04T21:30:31;101426.69;;;4.84;65.00
11643;BME280;5877;50.930;6.918;2023-03-04T21:35:23;101493.91;;;5.31;65.24
11643;BME280;5877;50.930;6.918;2023-03-04T21:40:15;101293.38;;;4.14;65.41
11643;BME280;5877;50.930;6.918;2023-03-04T21:45:09;101605.31;;;6.13;65.59
11643;BME280;5877;50.930;6.918;2023-03-04T21:50:01;101350.59;;;4.22;66.05
11643;BME280;5877;50.930;6.918;2023-03-04T21:54:53;101397.06;;;4.77;66.21
11643;BME280;5877;50.930;6.918;2023-03-04T21:59:46;101606.59;;;6.09;66.13
11643;BME280;5877;50.930;6.918;2023-03-04T22:04:39;101476.47;;;5.15;66.04
11643;BME280;5877;50.930;6.918;2023-03-04T22:09:32;101625.59;;;5.94;65.66
11643;BME280;5877;50.930;6.918;2023-03-04T22:14:25;101475.41;;;5.00;65.54
11643;BME280;5877;50.930;6.918;2023-03-04T22:19:19;101431.84;;;4.76;65.56
11643;BME280;5877;50.930;6.918;2023-03-04T22:24:11;101601.41;;;5.83;65.60
11643;BME280;5877;50.930;6.918;2023-03-04T22:29:04;101484.13;;;4.91;65.77
11643;BME280;5877;50.930;6.918;2023-03-04T22:34:01;101591.09;;;5.74;66.84
11643;BME280;5877;50.930;6.918;2023-03-04T22:38:54;101541.06;;;5.20;66.84
11643;BME280;5877;50.930;6.918;2023-03-04T22:43:47;101505.50;;;5.03;67.42
11643;BME280;5877;50.930;6.918;2023-03-04T22:48:39;101339.56;;;4.03;67.71
11643;BME280;5877;50.930;6.918;2023-03-04T22:53:30;101598.72;;;5.67;67.73
11643;BME280;5877;50.930;6.918;2023-03-04T22:58:22;101494.88;;;4.96;67.66
11643;BME280;5877;50.930;6.918;2023-03-04T23:03:14;101297.22;;;3.84;68.09
11643;BME280;5877;50.930;6.918;2023-03-04T23:08:06;101447.94;;;4.54;67.81
11643;BME280;5877;50.930;6.918;2023-03-04T23:12:58;101566.41;;;5.18;68.83
11643;BME280;5877;50.930;6.918;2023-03-04T23:17:50;101373.25;;;4.12;68.17
11643;BME280;5877;50.930;6.918;2023-03-04T23:22:43;101287.31;;;3.44;67.83
11643;BME280;5877;50.930;6.918;2023-03-04T23:27:36;101295.19;;;3.52;68.52
11643;BME280;5877;50.930;6.918;2023-03-04T23:32:27;101401.00;;;4.12;68.69
11643;BME280;5877;50.930;6.918;2023-03-04T23:37:21;101459.50;;;4.34;68.80
11643;BME280;5877;50.930;6.918;2023-03-04T23:42:14;101487.97;;;4.61;69.00
11643;BME280;5877;50.930;6.918;2023-03-04T23:47:06;101486.59;;;4.49;69.08
11643;BME280;5877;50.930;6.918;2023-03-04T23:51:58;101415.03;;;4.01;69.11
11643;BME280;5877;50.930;6.918;2023-03-04T23:56:50;101566.41;;;4.92;69.27
